createdAt,value
2023-02-11T00:00:41.091Z,13.40
2023-02-11T00:02:48.029Z,13.20
2023-02-11T00:04:50.953Z,12.80
2023-02-11T00:06:57.688Z,12.40
2023-02-11T00:09:01.334Z,12.50
2023-02-11T00:11:07.062Z,12.70
2023-02-11T00:13:09.696Z,13.40
2023-02-11T00:15:12.398Z,13.20
2023-02-11T00:17:15.588Z,13.80
2023-02-11T00:19:18.321Z,12.80
2023-02-11T00:21:25.880Z,13.40
2023-02-11T00:23:28.587Z,13.20
2023-02-11T00:25:34.195Z,13.80
2023-02-11T00:27:37.751Z,12.90
2023-02-11T00:29:40.898Z,13.70
2023-02-11T00:31:47.917Z,12.80
2023-02-11T00:33:50.766Z,13.20
2023-02-11T00:35:54.948Z,13.10
2023-02-11T00:37:58.998Z,14.00
2023-02-11T00:40:03.831Z,13.90
2023-02-11T00:42:10.967Z,12.90
2023-02-11T00:44:13.763Z,13.40
2023-02-11T00:46:19.818Z,13.30
2023-02-11T00:48:22.640Z,13.60
2023-02-11T00:50:28.124Z,13.40
2023-02-11T00:52:32.437Z,14.20
2023-02-11T00:54:35.208Z,13.60
2023-02-11T00:56:44.073Z,13.50
2023-02-11T00:58:50.142Z,14.10
2023-02-11T01:00:53.692Z,13.40
2023-02-11T01:02:56.573Z,13.50
2023-02-11T01:05:00.135Z,13.90
2023-02-11T01:07:03.034Z,14.50
2023-02-11T01:09:06.262Z,14.30
2023-02-11T01:11:15.722Z,14.70
2023-02-11T01:13:20.838Z,13.80
2023-02-11T01:15:23.776Z,14.00
2023-02-11T01:17:29.205Z,14.10
2023-02-11T01:19:31.938Z,14.20
2023-02-11T01:21:34.888Z,13.50
2023-02-11T01:23:37.804Z,13.70
2023-02-11T01:25:46.780Z,14.30
2023-02-11T01:27:49.496Z,13.70
2023-02-11T01:29:55.804Z,15.00
2023-02-11T01:32:00.111Z,15.00
2023-02-11T01:34:06.044Z,14.30
2023-02-11T01:36:10.645Z,14.90
2023-02-11T01:38:21.550Z,14.40
2023-02-11T01:40:24.844Z,14.00
2023-02-11T01:42:27.599Z,13.30
2023-02-11T01:44:32.347Z,14.60
2023-02-11T01:46:37.529Z,14.30
2023-02-11T01:48:43.669Z,15.40
2023-02-11T01:50:50.346Z,15.00
2023-02-11T01:52:53.685Z,15.70
2023-02-11T01:55:00.032Z,15.30
2023-02-11T01:57:05.962Z,15.10
2023-02-11T01:59:23.537Z,15.20
2023-02-11T02:01:28.528Z,14.30
2023-02-11T02:03:40.082Z,14.30
2023-02-11T02:05:52.645Z,14.60
2023-02-11T02:08:10.981Z,14.40
2023-02-11T02:10:22.186Z,14.80
2023-02-11T02:12:25.031Z,15.20
2023-02-11T02:14:28.554Z,15.40
2023-02-11T02:16:35.748Z,15.80
2023-02-11T02:18:50.323Z,16.50
2023-02-11T02:21:35.142Z,16.10
2023-02-11T02:24:13.869Z,15.80
2023-02-11T02:26:53.771Z,15.60
2023-02-11T02:29:42.334Z,15.80
2023-02-11T02:32:01.584Z,16.60
2023-02-11T02:34:09.078Z,16.30
2023-02-11T02:36:18.927Z,16.70
2023-02-11T02:38:27.964Z,17.40
2023-02-11T02:40:34.556Z,15.90
2023-02-11T02:42:39.536Z,15.50
2023-02-11T02:44:48.653Z,17.20
2023-02-11T02:46:53.048Z,16.00
2023-02-11T02:48:59.709Z,15.50
2023-02-11T02:51:10.745Z,16.10
2023-02-11T02:53:26.569Z,16.10
2023-02-11T02:55:46.281Z,16.30
2023-02-11T02:58:26.435Z,16.80
2023-02-11T03:00:37.665Z,15.90
2023-02-11T03:02:48.693Z,16.50
2023-02-11T03:05:01.849Z,16.50
2023-02-11T03:07:16.004Z,16.00
2023-02-11T03:09:24.814Z,16.70
2023-02-11T03:11:40.563Z,16.70
2023-02-11T03:13:48.359Z,16.80
2023-02-11T03:15:55.056Z,16.20
2023-02-11T03:18:01.300Z,16.80
2023-02-11T03:20:06.260Z,17.20
2023-02-11T03:22:19.522Z,17.60
2023-02-11T03:24:30.274Z,16.00
2023-02-11T03:26:39.856Z,16.40
2023-02-11T03:28:48.890Z,16.40
2023-02-11T03:30:59.066Z,17.10
2023-02-11T03:33:11.796Z,16.50
2023-02-11T03:35:20.320Z,17.00
2023-02-11T03:37:28.198Z,16.80
2023-02-11T03:39:39.394Z,16.90
2023-02-11T03:41:48.444Z,16.80
2023-02-11T03:43:57.686Z,17.30
2023-02-11T03:46:01.777Z,16.80
2023-02-11T03:48:08.238Z,17.20
2023-02-11T03:50:12.439Z,16.80
2023-02-11T03:52:17.539Z,17.40
2023-02-11T03:54:26.811Z,16.90
2023-02-11T03:56:35.939Z,17.10
2023-02-11T03:58:38.789Z,17.00
2023-02-11T04:00:43.544Z,17.30
2023-02-11T04:02:49.338Z,17.00
2023-02-11T04:04:55.222Z,17.00
2023-02-11T04:06:57.871Z,17.50
2023-02-11T04:09:00.918Z,17.10
2023-02-11T04:11:03.571Z,16.60
2023-02-11T04:13:06.384Z,17.20
2023-02-11T04:15:09.810Z,17.30
2023-02-11T04:17:13.803Z,18.10
2023-02-11T04:19:16.444Z,17.50
2023-02-11T04:21:19.342Z,17.20
2023-02-11T04:23:22.030Z,16.60
2023-02-11T04:25:24.753Z,17.50
2023-02-11T04:27:27.511Z,17.30
2023-02-11T04:29:30.939Z,18.20
2023-02-11T04:31:33.859Z,17.90
2023-02-11T04:33:39.427Z,15.50
2023-02-11T04:35:45.247Z,17.00
2023-02-11T04:37:50.229Z,17.70
2023-02-11T04:39:52.846Z,18.70
2023-02-11T04:41:55.742Z,18.00
2023-02-11T04:43:58.447Z,17.70
2023-02-11T04:46:01.187Z,17.30
2023-02-11T04:48:05.558Z,17.40
2023-02-11T04:50:11.355Z,17.20
2023-02-11T04:52:13.949Z,17.30
2023-02-11T04:54:17.275Z,17.30
2023-02-11T04:56:25.677Z,17.80
2023-02-11T04:58:29.444Z,18.50
2023-02-11T05:00:32.111Z,18.20
2023-02-11T05:02:38.158Z,17.40
2023-02-11T05:04:40.861Z,16.40
2023-02-11T05:06:43.831Z,17.10
2023-02-11T05:08:49.837Z,17.60
2023-02-11T05:10:52.555Z,17.30
2023-02-11T05:12:56.467Z,17.10
2023-02-11T05:14:59.127Z,16.50
2023-02-11T05:17:01.926Z,17.70
2023-02-11T05:19:05.243Z,16.90
2023-02-11T05:21:10.037Z,17.20
2023-02-11T05:23:12.859Z,16.00
2023-02-11T05:25:21.751Z,16.70
2023-02-11T05:27:24.877Z,16.30
2023-02-11T05:29:28.082Z,17.00
2023-02-11T05:31:30.799Z,15.70
2023-02-11T05:33:33.744Z,16.10
2023-02-11T05:35:36.839Z,17.00
2023-02-11T05:37:39.982Z,15.50
2023-02-11T05:39:43.209Z,16.00
2023-02-11T05:41:48.972Z,16.40
2023-02-11T05:43:54.232Z,17.80
2023-02-11T05:46:00.164Z,15.10
2023-02-11T05:48:04.195Z,16.10
2023-02-11T05:50:10.702Z,15.00
2023-02-11T05:52:13.487Z,15.20
2023-02-11T05:54:18.948Z,14.30
2023-02-11T05:56:24.810Z,15.20
2023-02-11T05:58:31.732Z,14.20
2023-02-11T06:00:35.129Z,14.20
2023-02-11T06:02:45.185Z,13.90
2023-02-11T06:04:54.072Z,14.30
2023-02-11T06:06:56.834Z,15.00
2023-02-11T06:09:01.258Z,14.50
2023-02-11T06:11:04.629Z,14.80
2023-02-11T06:13:07.514Z,14.20
2023-02-11T06:15:12.131Z,14.40
2023-02-11T06:17:18.117Z,14.20
2023-02-11T06:19:20.904Z,14.70
2023-02-11T06:21:26.481Z,14.40
2023-02-11T06:23:34.700Z,14.30
2023-02-11T06:25:37.910Z,14.50
2023-02-11T06:27:40.831Z,14.80
2023-02-11T06:29:45.230Z,14.50
2023-02-11T06:31:48.054Z,14.00
2023-02-11T06:33:50.852Z,14.60
2023-02-11T06:35:53.548Z,14.60
2023-02-11T06:37:59.222Z,14.50
2023-02-11T06:40:02.456Z,15.00
2023-02-11T06:42:08.015Z,14.90
2023-02-11T06:44:13.355Z,14.30
2023-02-11T06:46:20.572Z,13.40
2023-02-11T06:48:23.602Z,13.80
2023-02-11T06:50:26.473Z,13.40
2023-02-11T06:52:32.219Z,13.10
2023-02-11T06:54:36.698Z,14.30
2023-02-11T06:56:43.934Z,13.60
2023-02-11T06:58:53.798Z,14.10
2023-02-11T07:00:56.772Z,14.70
2023-02-11T07:02:59.652Z,12.60
2023-02-11T07:05:05.306Z,14.30
2023-02-11T07:07:09.215Z,13.50
2023-02-11T07:09:15.881Z,13.80
2023-02-11T07:11:23.016Z,13.90
2023-02-11T07:13:27.168Z,13.30
2023-02-11T07:15:32.596Z,12.80
2023-02-11T07:17:36.137Z,13.10
2023-02-11T07:19:38.927Z,13.20
2023-02-11T07:21:47.426Z,13.70
2023-02-11T07:23:50.467Z,13.70
2023-02-11T07:25:53.082Z,12.60
2023-02-11T07:27:56.409Z,12.50
2023-02-11T07:29:59.243Z,12.40
2023-02-11T07:32:03.215Z,12.80
2023-02-11T07:34:05.992Z,12.40
2023-02-11T07:36:11.942Z,11.80
2023-02-11T07:38:14.708Z,11.60
2023-02-11T07:40:17.884Z,12.80
2023-02-11T07:42:20.619Z,11.70
2023-02-11T07:44:26.360Z,12.40
2023-02-11T07:46:29.226Z,11.50
2023-02-11T07:48:32.288Z,11.80
2023-02-11T07:50:34.957Z,11.60
2023-02-11T07:52:37.956Z,15.00
2023-02-11T07:54:41.160Z,12.60
2023-02-11T07:56:43.926Z,11.80
2023-02-11T07:58:46.998Z,11.70
2023-02-11T08:00:49.783Z,12.60
2023-02-11T08:02:53.792Z,12.60
2023-02-11T08:04:56.462Z,12.60
2023-02-11T08:06:59.392Z,12.90
2023-02-11T08:09:07.361Z,12.10
2023-02-11T08:11:12.774Z,12.10
2023-02-11T08:13:18.508Z,13.50
2023-02-11T08:15:21.241Z,11.50
2023-02-11T08:17:26.866Z,12.60
2023-02-11T08:19:29.637Z,11.80
2023-02-11T08:21:33.544Z,11.60
2023-02-11T08:23:40.514Z,11.80
2023-02-11T08:25:44.724Z,11.10
2023-02-11T08:27:47.989Z,12.00
2023-02-11T08:29:51.087Z,11.80
2023-02-11T08:31:54.008Z,11.80
2023-02-11T08:33:56.696Z,10.30
2023-02-11T08:35:59.892Z,11.00
2023-02-11T08:38:03.895Z,12.70
2023-02-11T08:40:11.457Z,10.70
2023-02-11T08:42:14.430Z,11.80
2023-02-11T08:44:17.302Z,11.40
2023-02-11T08:46:20.919Z,11.20
2023-02-11T08:48:23.806Z,11.00
2023-02-11T08:50:28.831Z,10.90
2023-02-11T08:52:31.936Z,11.40
2023-02-11T08:54:34.671Z,10.20
2023-02-11T08:56:38.150Z,12.00
2023-02-11T08:58:41.294Z,11.20
2023-02-11T09:00:44.121Z,11.70
2023-02-11T09:02:49.875Z,11.60
2023-02-11T09:04:52.564Z,10.50
2023-02-11T09:06:58.058Z,11.40
2023-02-11T09:09:01.216Z,11.20
2023-02-11T09:11:07.553Z,10.90
2023-02-11T09:13:10.722Z,11.50
2023-02-11T09:15:16.736Z,11.10
2023-02-11T09:17:22.617Z,11.90
2023-02-11T09:19:25.314Z,11.60
2023-02-11T09:21:28.789Z,12.30
2023-02-11T09:23:31.587Z,11.90
2023-02-11T09:25:34.284Z,12.80
2023-02-11T09:27:37.082Z,11.80
2023-02-11T09:29:39.781Z,12.50
2023-02-11T09:31:42.582Z,12.60
2023-02-11T09:33:48.450Z,11.70
2023-02-11T09:35:54.528Z,12.40
2023-02-11T09:38:01.328Z,12.60
2023-02-11T09:40:05.220Z,12.70
2023-02-11T09:42:44.984Z,12.30
2023-02-11T09:44:50.803Z,11.90
2023-02-11T09:46:57.961Z,11.10
2023-02-11T09:49:01.511Z,11.10
2023-02-11T09:51:05.600Z,12.20
2023-02-11T09:53:17.166Z,11.30
2023-02-11T09:55:24.540Z,12.30
2023-02-11T09:57:31.739Z,12.80
2023-02-11T09:59:39.257Z,12.00
2023-02-11T10:01:50.410Z,11.50
2023-02-11T10:04:01.105Z,10.40
2023-02-11T10:06:15.260Z,11.60
2023-02-11T10:08:26.281Z,11.30
2023-02-11T10:10:47.876Z,11.40
2023-02-11T10:13:11.473Z,11.80
2023-02-11T10:15:21.545Z,11.50
2023-02-11T10:17:36.036Z,11.10
2023-02-11T10:19:52.738Z,10.40
2023-02-11T10:22:06.231Z,10.40
2023-02-11T10:24:13.509Z,11.10
2023-02-11T10:26:18.092Z,10.60
2023-02-11T10:28:23.035Z,10.60
2023-02-11T10:30:31.556Z,10.70
2023-02-11T10:32:42.852Z,10.20
2023-02-11T10:34:45.990Z,10.40
2023-02-11T10:36:54.909Z,10.60
2023-02-11T10:38:59.377Z,10.50
2023-02-11T10:41:02.147Z,10.10
2023-02-11T10:43:11.022Z,10.20
2023-02-11T10:45:31.689Z,10.50
2023-02-11T10:47:37.725Z,11.00
2023-02-11T10:49:47.155Z,10.00
2023-02-11T10:51:51.090Z,11.00
2023-02-11T10:54:16.998Z,9.80
2023-02-11T10:56:26.808Z,10.70
2023-02-11T10:58:39.756Z,10.60
2023-02-11T11:00:50.479Z,9.40
2023-02-11T11:03:00.483Z,10.10
2023-02-11T11:05:07.080Z,10.70
2023-02-11T11:07:20.950Z,11.50
2023-02-11T11:09:29.069Z,12.00
2023-02-11T11:11:52.347Z,11.70
2023-02-11T11:13:57.108Z,10.30
2023-02-11T11:16:19.761Z,9.90
2023-02-11T11:18:25.298Z,9.70
2023-02-11T11:20:29.841Z,8.90
2023-02-11T11:22:32.862Z,9.50
2023-02-11T11:24:45.560Z,9.50
2023-02-11T11:26:53.178Z,8.80
2023-02-11T11:29:06.040Z,9.20
2023-02-11T11:31:16.916Z,9.40
2023-02-11T11:33:22.397Z,9.20
2023-02-11T11:35:27.384Z,7.80
2023-02-11T11:37:32.931Z,8.40
2023-02-11T11:39:36.121Z,8.60
2023-02-11T11:41:49.899Z,8.20
2023-02-11T11:44:00.257Z,7.90
2023-02-11T11:46:09.227Z,8.10
2023-02-11T11:48:21.919Z,8.10
2023-02-11T11:50:31.463Z,8.30
2023-02-11T11:52:43.121Z,8.10
2023-02-11T11:54:53.756Z,7.70
2023-02-11T11:57:01.063Z,7.60
2023-02-11T11:59:12.119Z,8.10
2023-02-11T12:01:28.047Z,7.30
2023-02-11T12:04:12.752Z,7.20
2023-02-11T12:06:38.701Z,7.10
2023-02-11T12:08:48.856Z,7.10
2023-02-11T12:11:07.863Z,7.50
2023-02-11T12:13:20.992Z,6.50
2023-02-11T12:15:34.653Z,6.90
2023-02-11T12:17:58.341Z,6.50
2023-02-11T12:20:25.070Z,8.20
2023-02-11T12:22:41.269Z,7.90
2023-02-11T12:25:09.088Z,6.40
2023-02-11T12:27:22.235Z,6.60
2023-02-11T12:29:35.523Z,6.80
2023-02-11T12:31:56.634Z,6.00
2023-02-11T12:34:30.541Z,6.10
2023-02-11T12:36:47.457Z,6.60
2023-02-11T12:39:07.258Z,6.60
2023-02-11T12:41:43.765Z,7.00
2023-02-11T12:43:46.504Z,7.30
2023-02-11T12:46:01.580Z,7.60
2023-02-11T12:48:24.105Z,7.30
2023-02-11T12:50:41.956Z,7.80
2023-02-11T12:53:08.410Z,7.10
2023-02-11T12:55:21.821Z,7.00
2023-02-11T12:57:27.494Z,6.70
2023-02-11T12:59:43.772Z,7.80
2023-02-11T13:01:51.488Z,7.10
2023-02-11T13:03:59.473Z,7.40
2023-02-11T13:06:06.698Z,7.60
2023-02-11T13:08:15.322Z,7.70
2023-02-11T13:10:27.843Z,8.20
2023-02-11T13:12:34.612Z,7.20
2023-02-11T13:14:40.565Z,8.10
2023-02-11T13:16:46.310Z,8.60
2023-02-11T13:18:56.236Z,7.40
2023-02-11T13:21:19.883Z,8.10
2023-02-11T13:23:31.638Z,8.10
2023-02-11T13:25:40.409Z,8.20
2023-02-11T13:27:55.386Z,8.70
2023-02-11T13:30:23.070Z,8.00
2023-02-11T13:32:51.748Z,7.60
2023-02-11T13:34:57.135Z,9.30
2023-02-11T13:37:00.381Z,8.90
2023-02-11T13:39:18.622Z,9.00
2023-02-11T13:41:30.367Z,8.90
2023-02-11T13:43:35.823Z,9.70
2023-02-11T13:45:44.508Z,8.60
2023-02-11T13:47:49.327Z,8.80
2023-02-11T13:49:54.375Z,9.40
2023-02-11T13:51:59.562Z,8.90
2023-02-11T13:54:16.854Z,9.00
2023-02-11T13:56:30.395Z,9.00
2023-02-11T13:58:46.703Z,9.20
2023-02-11T14:00:56.327Z,9.10
2023-02-11T14:03:31.058Z,9.10
2023-02-11T14:05:35.482Z,9.20
2023-02-11T14:08:09.753Z,9.00
2023-02-11T14:10:52.152Z,8.30
2023-02-11T14:13:23.295Z,9.10
2023-02-11T14:15:37.855Z,8.30
2023-02-11T14:17:41.690Z,9.20
2023-02-11T14:19:50.148Z,8.30
2023-02-11T14:22:01.993Z,8.00
2023-02-11T14:24:49.845Z,9.10
2023-02-11T14:27:01.993Z,8.50
2023-02-11T14:29:15.482Z,9.30
2023-02-11T14:31:24.553Z,9.50
2023-02-11T14:33:55.466Z,7.70
2023-02-11T14:36:07.908Z,7.70
2023-02-11T14:38:26.571Z,8.90
2023-02-11T14:40:32.581Z,9.40
2023-02-11T14:42:37.523Z,9.80
2023-02-11T14:44:43.417Z,8.60
2023-02-11T14:46:49.315Z,7.50
2023-02-11T14:48:58.044Z,7.50
2023-02-11T14:51:06.290Z,7.60
2023-02-11T14:53:15.666Z,8.90
2023-02-11T14:55:30.256Z,7.80
2023-02-11T14:57:33.463Z,7.10
2023-02-11T14:59:39.027Z,8.10
2023-02-11T15:01:45.066Z,7.90
2023-02-11T15:03:50.375Z,7.50
2023-02-11T15:05:59.413Z,7.00
2023-02-11T15:08:14.825Z,6.90
2023-02-11T15:10:29.941Z,7.50
2023-02-11T15:12:35.122Z,7.50
2023-02-11T15:14:45.387Z,7.30
2023-02-11T15:16:50.113Z,6.90
2023-02-11T15:19:00.677Z,6.60
2023-02-11T15:21:06.094Z,6.90
2023-02-11T15:23:19.556Z,6.60
2023-02-11T15:25:25.640Z,7.00
2023-02-11T15:27:39.745Z,6.80
2023-02-11T15:29:45.290Z,7.60
2023-02-11T15:32:13.729Z,7.20
2023-02-11T15:34:20.773Z,7.60
2023-02-11T15:36:29.344Z,6.90
2023-02-11T15:38:36.179Z,7.00
2023-02-11T15:40:50.949Z,7.40
2023-02-11T15:42:59.490Z,7.10
2023-02-11T15:45:21.530Z,7.50
2023-02-11T15:47:30.572Z,6.80
2023-02-11T15:49:44.048Z,7.00
2023-02-11T15:51:50.231Z,6.50
2023-02-11T15:54:00.947Z,6.70
2023-02-11T15:56:19.508Z,7.50
2023-02-11T15:58:28.204Z,7.80
2023-02-11T16:00:46.329Z,6.70
2023-02-11T16:02:55.474Z,7.50
2023-02-11T16:05:02.894Z,7.00
2023-02-11T16:07:26.959Z,7.70
2023-02-11T16:09:37.536Z,7.50
2023-02-11T16:11:57.826Z,7.20
2023-02-11T16:14:20.388Z,6.70
2023-02-11T16:16:29.309Z,7.20
2023-02-11T16:18:39.234Z,7.20
2023-02-11T16:20:49.305Z,7.20
2023-02-11T16:22:57.470Z,8.00
2023-02-11T16:25:04.838Z,6.80
2023-02-11T16:27:22.593Z,8.00
2023-02-11T16:29:30.628Z,7.40
2023-02-11T16:31:36.883Z,7.70
2023-02-11T16:33:45.652Z,7.20
2023-02-11T16:35:54.456Z,7.90
2023-02-11T16:38:05.715Z,8.10
2023-02-11T16:40:12.543Z,7.60
2023-02-11T16:42:25.125Z,7.60
2023-02-11T16:44:32.620Z,8.20
2023-02-11T16:46:38.805Z,7.70
2023-02-11T16:48:43.068Z,7.60
2023-02-11T16:50:51.522Z,8.60
2023-02-11T16:52:59.238Z,7.50
2023-02-11T16:55:06.208Z,7.70
2023-02-11T16:57:13.251Z,7.80
2023-02-11T16:59:23.453Z,8.00
2023-02-11T17:01:28.228Z,8.30
2023-02-11T17:03:34.039Z,8.10
2023-02-11T17:05:55.028Z,11.40
2023-02-11T17:08:02.254Z,8.90
2023-02-11T17:10:18.185Z,8.90
2023-02-11T17:12:22.595Z,8.90
2023-02-11T17:14:30.141Z,9.50
2023-02-11T17:16:35.328Z,8.60
2023-02-11T17:18:46.006Z,9.50
2023-02-11T17:20:54.666Z,7.90
2023-02-11T17:23:01.375Z,8.70
2023-02-11T17:25:13.504Z,7.90
2023-02-11T17:27:23.265Z,8.10
2023-02-11T17:29:28.593Z,9.20
2023-02-11T17:31:35.825Z,9.20
2023-02-11T17:33:39.793Z,8.60
2023-02-11T17:35:47.527Z,8.20
2023-02-11T17:37:53.471Z,7.90
2023-02-11T17:39:59.759Z,8.50
2023-02-11T17:42:07.698Z,8.50
2023-02-11T17:44:12.618Z,7.70
2023-02-11T17:46:16.787Z,7.80
2023-02-11T17:48:23.569Z,7.90
2023-02-11T17:50:29.245Z,8.80
2023-02-11T17:52:34.392Z,9.50
2023-02-11T17:54:39.342Z,9.50
2023-02-11T17:56:45.822Z,8.70
2023-02-11T17:58:52.618Z,8.50
2023-02-11T18:01:03.387Z,9.30
2023-02-11T18:03:11.245Z,9.00
2023-02-11T18:05:16.242Z,8.30
2023-02-11T18:07:21.253Z,9.40
2023-02-11T18:09:28.810Z,9.10
2023-02-11T18:11:34.736Z,9.30
2023-02-11T18:13:43.324Z,8.20
2023-02-11T18:15:52.617Z,8.90
2023-02-11T18:17:59.586Z,9.30
2023-02-11T18:20:07.616Z,9.80
2023-02-11T18:22:18.063Z,8.80
2023-02-11T18:24:27.429Z,8.70
2023-02-11T18:26:36.670Z,8.60
2023-02-11T18:28:45.314Z,9.00
2023-02-11T18:30:57.857Z,8.90
2023-02-11T18:33:02.769Z,8.30
2023-02-11T18:35:22.901Z,9.50
2023-02-11T18:37:27.291Z,9.30
2023-02-11T18:39:32.178Z,9.60
2023-02-11T18:41:37.868Z,8.80
2023-02-11T18:43:50.164Z,9.70
2023-02-11T18:45:58.265Z,9.40
2023-02-11T18:48:08.694Z,10.80
2023-02-11T18:50:20.599Z,9.80
2023-02-11T18:52:26.347Z,10.10
2023-02-11T18:54:31.856Z,9.10
2023-02-11T18:56:40.474Z,9.40
2023-02-11T18:58:47.203Z,9.70
2023-02-11T19:00:51.611Z,8.90
2023-02-11T19:02:58.087Z,9.00
2023-02-11T19:05:10.378Z,9.00
2023-02-11T19:07:14.908Z,8.80
2023-02-11T19:09:23.541Z,8.80
2023-02-11T19:11:31.315Z,10.00
2023-02-11T19:13:37.630Z,10.10
2023-02-11T19:16:04.548Z,9.10
2023-02-11T19:18:11.567Z,9.80
2023-02-11T19:20:18.211Z,11.50
2023-02-11T19:22:26.159Z,10.20
2023-02-11T19:24:32.909Z,9.50
2023-02-11T19:26:39.651Z,9.30
2023-02-11T19:28:49.704Z,9.70
2023-02-11T19:30:54.723Z,9.90
2023-02-11T19:33:01.414Z,9.70
2023-02-11T19:35:05.653Z,10.00
2023-02-11T19:37:17.676Z,9.60
2023-02-11T19:39:24.009Z,10.50
2023-02-11T19:41:28.472Z,10.00
2023-02-11T19:43:33.651Z,10.80
2023-02-11T19:45:39.938Z,10.10
2023-02-11T19:47:45.698Z,9.80
2023-02-11T19:49:49.714Z,9.70
2023-02-11T19:51:56.143Z,10.10
2023-02-11T19:54:00.818Z,9.40
2023-02-11T19:56:10.215Z,9.30
2023-02-11T19:58:16.780Z,8.90
2023-02-11T20:00:28.754Z,11.10
2023-02-11T20:02:33.710Z,10.20
2023-02-11T20:04:40.242Z,11.00
2023-02-11T20:06:47.606Z,9.60
2023-02-11T20:08:58.179Z,10.40
2023-02-11T20:11:08.721Z,11.20
2023-02-11T20:13:15.038Z,9.20
2023-02-11T20:15:22.983Z,9.80
2023-02-11T20:17:29.012Z,10.70
2023-02-11T20:19:33.924Z,9.50
2023-02-11T20:21:40.465Z,10.50
2023-02-11T20:23:45.906Z,10.50
2023-02-11T20:25:50.397Z,10.50
2023-02-11T20:27:58.635Z,9.90
2023-02-11T20:30:04.281Z,9.70
2023-02-11T20:32:09.780Z,10.40
2023-02-11T20:34:14.488Z,10.10
2023-02-11T20:36:23.482Z,11.60
2023-02-11T20:38:29.388Z,11.20
2023-02-11T20:40:39.527Z,8.90
2023-02-11T20:42:44.957Z,10.70
2023-02-11T20:44:50.093Z,10.50
2023-02-11T20:46:54.989Z,9.50
2023-02-11T20:48:59.228Z,9.60
2023-02-11T20:51:11.746Z,10.50
2023-02-11T20:53:16.754Z,11.10
2023-02-11T20:55:20.877Z,10.50
2023-02-11T20:57:30.050Z,10.20
2023-02-11T20:59:33.499Z,10.00
2023-02-11T21:01:49.220Z,10.50
2023-02-11T21:03:55.250Z,9.90
2023-02-11T21:06:04.978Z,9.90
2023-02-11T21:08:13.731Z,10.00
2023-02-11T21:10:18.646Z,10.00
2023-02-11T21:12:24.834Z,10.30
2023-02-11T21:14:30.553Z,10.00
2023-02-11T21:16:37.593Z,10.60
2023-02-11T21:18:42.142Z,10.90
2023-02-11T21:20:45.448Z,10.50
2023-02-11T21:22:53.391Z,9.90
2023-02-11T21:25:01.183Z,10.30
2023-02-11T21:27:09.400Z,10.30
2023-02-11T21:29:14.788Z,10.10
2023-02-11T21:31:22.392Z,10.50
2023-02-11T21:33:31.092Z,10.20
2023-02-11T21:35:39.388Z,9.90
2023-02-11T21:37:42.823Z,9.90
2023-02-11T21:39:47.617Z,10.30
2023-02-11T21:41:51.745Z,9.80
2023-02-11T21:43:58.549Z,10.00
2023-02-11T21:46:08.980Z,9.50
2023-02-11T21:48:16.661Z,11.50
2023-02-11T21:50:23.992Z,10.80
2023-02-11T21:52:27.507Z,10.40
2023-02-11T21:54:32.108Z,10.90
2023-02-11T21:56:39.924Z,10.10
2023-02-11T21:58:43.852Z,11.90
2023-02-11T22:00:47.072Z,10.80
2023-02-11T22:02:51.652Z,11.70
2023-02-11T22:04:56.664Z,10.30
2023-02-11T22:06:59.703Z,10.80
2023-02-11T22:09:05.325Z,10.90
2023-02-11T22:11:11.541Z,11.50
2023-02-11T22:13:15.249Z,10.60
2023-02-11T22:15:18.264Z,10.60
2023-02-11T22:17:21.229Z,11.10
2023-02-11T22:19:23.965Z,10.80
2023-02-11T22:21:27.580Z,10.90
2023-02-11T22:23:34.047Z,9.80
2023-02-11T22:25:37.704Z,11.30
2023-02-11T22:27:40.428Z,11.60
2023-02-11T22:29:43.592Z,11.70
2023-02-11T22:31:46.359Z,10.50
2023-02-11T22:33:49.840Z,10.50
2023-02-11T22:36:01.921Z,10.00
2023-02-11T22:38:04.713Z,12.20
2023-02-11T22:40:11.499Z,10.90
2023-02-11T22:42:17.166Z,11.70
2023-02-11T22:44:19.923Z,11.20
2023-02-11T22:46:22.720Z,11.80
2023-02-11T22:48:26.071Z,11.00
2023-02-11T22:50:29.037Z,11.70
2023-02-11T22:52:33.782Z,10.30
2023-02-11T22:54:39.511Z,12.40
2023-02-11T22:56:42.477Z,12.20
2023-02-11T22:58:45.165Z,11.70
2023-02-11T23:00:50.656Z,11.40
2023-02-11T23:02:53.447Z,11.70
2023-02-11T23:04:56.191Z,12.60
2023-02-11T23:06:58.967Z,12.40
2023-02-11T23:09:04.818Z,10.90
2023-02-11T23:11:09.767Z,11.80
2023-02-11T23:13:12.717Z,11.40
2023-02-11T23:15:15.668Z,12.40
2023-02-11T23:17:18.490Z,12.40
2023-02-11T23:19:21.123Z,11.60
2023-02-11T23:21:26.810Z,13.10
2023-02-11T23:23:29.494Z,11.00
2023-02-11T23:25:33.230Z,10.60
2023-02-11T23:27:35.972Z,11.70
2023-02-11T23:29:38.653Z,11.60
2023-02-11T23:31:42.998Z,12.50
2023-02-11T23:33:46.054Z,12.40
2023-02-11T23:35:51.728Z,12.90
2023-02-11T23:37:54.389Z,12.20
2023-02-11T23:39:57.178Z,12.20
2023-02-11T23:41:59.912Z,12.20
2023-02-11T23:44:02.571Z,12.30
2023-02-11T23:46:05.840Z,12.70
2023-02-11T23:48:08.681Z,11.30
2023-02-11T23:50:12.331Z,12.40
2023-02-11T23:52:15.409Z,12.10
2023-02-11T23:54:19.640Z,11.70
2023-02-11T23:56:24.399Z,12.20
2023-02-11T23:58:27.126Z,11.90
